Time;durP1;ratioP1;P1;durP2;ratioP2;P2;SDS_P1;SDS_P2;PMS_P1;PMS_P2;Temp;Humidity;BMP_temperature;BMP_pressure;BME280_temperature;BME280_humidity;BME280_pressure;Samples;Min_cycle;Max_cycle;Signal;HPM_P1;HPM_P2
2021/12/24 00:01:46;;;;;;;32.13;24.27;;;1.60;99.90;;;;;;5025156;28;20546;-52
2021/12/24 00:04:13;;;;;;;34.53;25.03;;;1.60;99.90;;;;;;5023393;28;20545;-52
2021/12/24 00:06:40;;;;;;;33.63;24.73;;;1.60;99.90;;;;;;5026840;28;21006;-52
2021/12/24 00:09:07;;;;;;;29.70;23.30;;;1.60;99.90;;;;;;5023147;28;20570;-53
2021/12/24 00:11:35;;;;;;;28.20;23.30;;;1.60;99.90;;;;;;5024980;28;20590;-53
2021/12/24 00:14:04;;;;;;;29.10;23.17;;;1.60;99.90;;;;;;5026570;28;20462;-52
2021/12/24 00:16:38;;;;;;;28.97;23.47;;;1.60;98.50;;;;;;5024967;28;20537;-53
2021/12/24 00:19:17;;;;;;;32.13;24.47;;;1.70;98.90;;;;;;5025543;28;20477;-52
2021/12/24 00:35:30;;;;;;;33.97;24.67;;;1.80;93.30;;;;;;5021630;28;20442;-52
2021/12/24 00:38:01;;;;;;;28.50;23.57;;;1.70;88.10;;;;;;5025353;28;20486;-52
2021/12/24 00:40:28;;;;;;;31.73;24.80;;;1.80;91.90;;;;;;5023315;28;20498;-52
2021/12/24 00:42:57;;;;;;;30.60;23.53;;;1.70;94.90;;;;;;5026078;28;20865;-53
2021/12/24 00:45:26;;;;;;;28.47;23.00;;;1.80;90.40;;;;;;5022423;28;20501;-52
2021/12/24 00:47:54;;;;;;;30.67;24.57;;;1.80;85.10;;;;;;5024700;28;20586;-53
2021/12/24 00:50:25;;;;;;;31.50;24.77;;;1.80;84.10;;;;;;5023751;28;20550;-53
2021/12/24 00:52:57;;;;;;;31.80;24.47;;;1.80;88.50;;;;;;5024524;28;21049;-51
2021/12/24 00:55:25;;;;;;;36.03;23.90;;;1.80;82.40;;;;;;5024509;28;20541;-53
2021/12/24 00:57:54;;;;;;;32.63;23.43;;;1.80;79.10;;;;;;5022059;28;20847;-52
2021/12/24 01:00:23;;;;;;;32.63;25.27;;;1.80;88.20;;;;;;5021653;28;20554;-52
2021/12/24 01:02:51;;;;;;;28.37;22.70;;;1.80;87.00;;;;;;5025165;28;20547;-52
2021/12/24 01:05:20;;;;;;;30.40;24.40;;;1.80;87.40;;;;;;5025680;28;20554;-52
2021/12/24 01:07:49;;;;;;;30.43;24.70;;;1.80;86.90;;;;;;5026311;28;20645;-52
2021/12/24 01:10:17;;;;;;;30.67;24.20;;;1.80;78.50;;;;;;5024786;28;20459;-52
2021/12/24 01:12:44;;;;;;;30.03;24.00;;;1.90;76.40;;;;;;5025798;28;20591;-52
2021/12/24 01:15:13;;;;;;;29.63;23.03;;;1.80;77.30;;;;;;5026511;28;20598;-52
2021/12/24 01:17:44;;;;;;;30.10;23.50;;;1.90;75.30;;;;;;5026573;28;20478;-52
2021/12/24 01:20:22;;;;;;;35.97;24.67;;;1.90;81.80;;;;;;5025480;28;20478;-52
2021/12/24 01:23:25;;;;;;;30.77;23.60;;;1.90;76.90;;;;;;5025629;28;20455;-52
2021/12/24 01:25:54;;;;;;;31.70;23.30;;;1.80;77.40;;;;;;5023933;28;20461;-53
2021/12/24 01:39:18;;;;;;;26.73;21.47;;;2.00;64.50;;;;;;5024695;28;20799;-53
2021/12/24 01:44:29;;;;;;;26.43;21.80;;;2.00;63.40;;;;;;5025890;28;20449;-52
2021/12/24 01:46:57;;;;;;;30.70;22.40;;;2.00;62.00;;;;;;5024959;28;20584;-53
2021/12/24 01:49:24;;;;;;;31.10;21.50;;;2.00;62.10;;;;;;5024417;28;20502;-53
2021/12/24 01:51:52;;;;;;;23.80;19.87;;;2.00;61.90;;;;;;5025618;28;20625;-53
2021/12/24 01:54:20;;;;;;;27.27;23.20;;;2.00;62.00;;;;;;5022392;28;21067;-53
2021/12/24 01:56:47;;;;;;;26.50;21.17;;;2.00;62.70;;;;;;5024678;28;20569;-52
2021/12/24 01:59:14;;;;;;;24.80;20.50;;;2.10;59.60;;;;;;5023640;28;20481;-53
2021/12/24 02:01:41;;;;;;;27.23;21.10;;;2.10;55.80;;;;;;5027643;28;20466;-53
2021/12/24 02:04:11;;;;;;;28.03;20.47;;;2.10;60.50;;;;;;5023115;28;20541;-52
2021/12/24 02:06:38;;;;;;;23.70;20.10;;;2.00;67.00;;;;;;5022856;28;20463;-53
2021/12/24 02:09:06;;;;;;;29.23;21.60;;;2.10;57.80;;;;;;5024891;28;20490;-53
2021/12/24 02:11:37;;;;;;;22.40;18.97;;;2.10;62.00;;;;;;5025011;28;20876;-53
2021/12/24 02:14:05;;;;;;;23.57;19.77;;;2.10;60.80;;;;;;5024266;28;20459;-53
2021/12/24 02:16:44;;;;;;;23.83;20.07;;;2.10;62.00;;;;;;5025332;28;20469;-52
2021/12/24 02:30:09;;;;;;;21.33;19.07;;;2.20;52.60;;;;;;5022973;28;22030;-53
2021/12/24 02:32:41;;;;;;;20.80;17.80;;;2.20;47.60;;;;;;5025230;28;20514;-52
2021/12/24 02:35:08;;;;;;;19.43;16.60;;;2.30;49.50;;;;;;5022676;28;21042;-53
2021/12/24 02:37:37;;;;;;;19.00;17.00;;;2.30;45.30;;;;;;5032060;28;20558;-53
2021/12/24 02:40:04;;;;;;;18.93;16.93;;;2.30;44.20;;;;;;5023402;28;20550;-53
2021/12/24 02:42:33;;;;;;;20.10;17.37;;;2.20;45.20;;;;;;5024778;28;20459;-53
2021/12/24 02:45:00;;;;;;;21.37;17.43;;;2.30;46.60;;;;;;5022725;28;20928;-53
2021/12/24 02:47:53;;;;;;;19.27;15.87;;;2.30;44.40;;;;;;5024559;28;20577;-52
2021/12/24 02:56:01;;;;;;;19.60;17.10;;;2.30;38.20;;;;;;5033489;28;20744;-53
2021/12/24 02:58:36;;;;;;;18.30;15.77;;;2.40;40.20;;;;;;5029164;28;20581;-53
2021/12/24 03:01:03;;;;;;;18.90;16.40;;;2.40;35.10;;;;;;5024795;28;20546;-52
2021/12/24 03:03:30;;;;;;;17.23;15.03;;;2.40;34.90;;;;;;5023732;28;20463;-53
2021/12/24 03:05:56;;;;;;;18.50;16.13;;;2.40;35.40;;;;;;5022884;28;20589;-53
2021/12/24 03:08:24;;;;;;;17.40;15.60;;;2.40;34.10;;;;;;5024787;28;21015;-53
2021/12/24 03:10:53;;;;;;;16.90;15.20;;;2.40;30.20;;;;;;5024436;28;20545;-53
2021/12/24 03:13:19;;;;;;;17.60;14.90;;;2.40;36.80;;;;;;5023945;28;20483;-52
2021/12/24 03:15:48;;;;;;;18.60;16.10;;;2.40;33.70;;;;;;5022980;28;20598;-53
2021/12/24 03:18:22;;;;;;;16.70;14.60;;;2.40;26.50;;;;;;5025851;28;20483;-53
2021/12/24 03:20:48;;;;;;;18.97;15.93;;;2.40;26.90;;;;;;5025566;28;20470;-52
2021/12/24 03:23:34;;;;;;;17.17;15.33;;;2.50;26.20;;;;;;5024090;28;20560;-53
2021/12/24 03:26:01;;;;;;;16.50;14.60;;;2.50;25.70;;;;;;5023461;28;20458;-53
2021/12/24 03:28:28;;;;;;;15.40;13.80;;;2.50;29.70;;;;;;5021760;28;20605;-53
2021/12/24 03:30:55;;;;;;;18.23;15.57;;;2.50;25.30;;;;;;5025943;28;20494;-53
2021/12/24 03:33:21;;;;;;;15.00;13.50;;;2.50;28.20;;;;;;5024322;28;21045;-53
2021/12/24 03:35:48;;;;;;;16.77;14.97;;;2.50;27.20;;;;;;5023971;28;20554;-52
2021/12/24 03:38:14;;;;;;;15.93;14.23;;;2.50;33.00;;;;;;5031837;28;20529;-53
2021/12/24 03:40:41;;;;;;;15.63;13.60;;;2.50;27.20;;;;;;5026930;28;20546;-52
2021/12/24 03:43:09;;;;;;;17.20;14.83;;;2.50;22.00;;;;;;5024246;28;20550;-54
2021/12/24 03:45:42;;;;;;;16.80;14.63;;;2.50;24.30;;;;;;5023336;28;20544;-53
2021/12/24 03:48:16;;;;;;;16.10;14.50;;;2.60;20.10;;;;;;5024235;28;20493;-52
2021/12/24 03:50:50;;;;;;;16.20;14.47;;;2.60;80.80;;;;;;5023789;28;20449;-53
2021/12/24 03:56:01;;;;;;;16.90;14.60;;;2.60;27.20;;;;;;5027439;28;20597;-52
2021/12/24 03:58:29;;;;;;;15.70;14.00;;;2.60;25.30;;;;;;5026832;28;20482;-53
2021/12/24 04:00:56;;;;;;;15.77;12.90;;;2.60;81.60;;;;;;5027563;28;20585;-53
2021/12/24 04:03:23;;;;;;;14.57;12.60;;;2.70;99.00;;;;;;5028617;28;20584;-52
2021/12/24 04:05:49;;;;;;;14.70;12.90;;;2.60;73.10;;;;;;5027080;28;20908;-53
2021/12/24 04:08:16;;;;;;;15.90;14.30;;;2.60;21.70;;;;;;5024937;28;20566;-53
2021/12/24 04:10:43;;;;;;;13.57;12.23;;;2.60;79.90;;;;;;5025736;28;20990;-52
2021/12/24 04:13:11;;;;;;;13.93;12.57;;;2.60;81.60;;;;;;5026598;28;20605;-52
2021/12/24 04:15:40;;;;;;;14.53;13.07;;;2.70;99.90;;;;;;5027381;28;20547;-53
2021/12/24 04:18:14;;;;;;;14.70;13.10;;;2.60;96.80;;;;;;5024048;28;20930;-52
2021/12/24 04:26:10;;;;;;;13.93;12.53;;;2.70;99.90;;;;;;5023921;28;21001;-53
2021/12/24 04:28:36;;;;;;;14.60;13.10;;;2.70;99.90;;;;;;5026131;28;20566;-53
2021/12/24 04:31:04;;;;;;;13.33;12.03;;;2.70;99.90;;;;;;5027158;28;20554;-52
2021/12/24 04:33:34;;;;;;;13.67;12.27;;;2.80;99.90;;;;;;5027441;28;20569;-53
2021/12/24 04:36:15;;;;;;;14.70;12.77;;;2.80;99.90;;;;;;5025936;28;20459;-53
2021/12/24 04:39:04;;;;;;;14.70;12.93;;;2.80;99.90;;;;;;5025764;28;20474;-53
2021/12/24 04:52:50;;;;;;;14.37;12.87;;;3.00;99.90;;;;;;5026614;28;20534;-53
2021/12/24 05:03:34;;;;;;;13.33;12.00;;;3.00;99.90;;;;;;5025534;28;20541;-52
2021/12/24 05:06:13;;;;;;;10.70;9.70;;;3.10;99.90;;;;;;5024458;28;20936;-53
2021/12/24 05:08:47;;;;;;;11.07;9.97;;;3.10;99.90;;;;;;5024350;28;20565;-53
2021/12/24 05:11:14;;;;;;;12.97;11.37;;;3.10;99.90;;;;;;5026377;28;20826;-53
2021/12/24 05:13:40;;;;;;;10.90;9.87;;;3.20;99.90;;;;;;5024235;28;20486;-52
2021/12/24 05:16:17;;;;;;;10.10;9.20;;;3.10;99.90;;;;;;5024234;28;20487;-52
2021/12/24 05:21:37;;;;;;;10.93;9.67;;;3.30;99.90;;;;;;5001153;28;20581;-52
2021/12/24 05:24:06;;;;;;;10.07;9.10;;;3.30;99.90;;;;;;5024173;28;20451;-54
2021/12/24 05:26:34;;;;;;;8.37;7.57;;;3.30;99.90;;;;;;5022259;28;20525;-53
2021/12/24 05:29:01;;;;;;;9.37;8.47;;;3.30;99.90;;;;;;5023933;28;21106;-53
2021/12/24 05:31:29;;;;;;;8.17;7.47;;;3.30;99.90;;;;;;5025475;28;20884;-52
2021/12/24 05:33:57;;;;;;;6.73;6.13;;;3.40;99.90;;;;;;5025628;28;20493;-53
2021/12/24 05:36:24;;;;;;;7.93;7.17;;;3.50;99.90;;;;;;5025315;28;20538;-53
2021/12/24 05:38:51;;;;;;;8.40;7.70;;;3.50;99.90;;;;;;5024078;28;20494;-53
2021/12/24 05:41:21;;;;;;;7.33;6.63;;;3.50;99.90;;;;;;5024522;28;20561;-52
2021/12/24 05:43:47;;;;;;;7.37;6.77;;;3.50;99.90;;;;;;5025030;28;20488;-52
2021/12/24 05:46:14;;;;;;;6.57;6.07;;;3.50;99.90;;;;;;5022658;28;20491;-52
2021/12/24 05:48:41;;;;;;;7.00;6.40;;;3.50;99.90;;;;;;5025520;28;20491;-52
2021/12/24 05:51:09;;;;;;;10.10;6.67;;;3.60;99.90;;;;;;5027111;28;20543;-52
2021/12/24 05:53:36;;;;;;;6.50;6.00;;;3.60;99.90;;;;;;5023933;28;20837;-52
2021/12/24 05:56:03;;;;;;;6.07;5.57;;;3.60;99.90;;;;;;5024745;28;20553;-52
2021/12/24 05:58:29;;;;;;;6.47;6.00;;;3.60;99.90;;;;;;5022764;28;20918;-52
2021/12/24 06:00:57;;;;;;;5.80;5.40;;;3.70;99.90;;;;;;5025578;28;20469;-53
2021/12/24 06:03:24;;;;;;;5.53;5.13;;;3.70;99.90;;;;;;5024662;28;20459;-52
2021/12/24 06:05:50;;;;;;;5.33;4.93;;;3.70;99.90;;;;;;5021575;28;20551;-53
2021/12/24 06:08:18;;;;;;;5.20;4.80;;;3.70;99.90;;;;;;5025224;28;20922;-52
2021/12/24 06:10:45;;;;;;;5.60;5.10;;;3.80;99.90;;;;;;5023124;28;20589;-52
2021/12/24 06:13:11;;;;;;;4.27;3.97;;;3.70;99.90;;;;;;5027280;28;20487;-52
2021/12/24 06:15:44;;;;;;;4.77;4.47;;;3.80;99.90;;;;;;5024455;28;20521;-53
2021/12/24 06:18:18;;;;;;;4.23;4.03;;;3.80;99.90;;;;;;5022633;28;20497;-53
2021/12/24 06:20:44;;;;;;;5.13;4.83;;;3.80;99.90;;;;;;5023212;28;20470;-53
2021/12/24 06:23:12;;;;;;;3.97;3.77;;;3.80;99.90;;;;;;5024736;28;20554;-53
2021/12/24 06:25:40;;;;;;;4.17;3.87;;;3.80;99.90;;;;;;5024554;28;20970;-52
2021/12/24 06:28:06;;;;;;;6.23;3.80;;;3.80;99.90;;;;;;5022752;28;20592;-52
2021/12/24 06:30:33;;;;;;;4.07;3.80;;;3.80;99.90;;;;;;5024508;28;20788;-52
2021/12/24 06:33:01;;;;;;;3.00;2.90;;;3.80;99.90;;;;;;5021374;28;20459;-53
2021/12/24 06:35:28;;;;;;;2.90;2.80;;;3.80;99.90;;;;;;5022089;28;20561;-53
2021/12/24 06:37:56;;;;;;;3.37;3.17;;;3.90;99.90;;;;;;5020625;28;20617;-53
2021/12/24 06:40:23;;;;;;;2.93;2.73;;;3.80;99.90;;;;;;5024351;28;20465;-52
2021/12/24 06:42:51;;;;;;;3.07;2.97;;;3.90;99.90;;;;;;5025799;28;20646;-52
2021/12/24 06:45:21;;;;;;;2.40;2.30;;;3.90;99.90;;;;;;5021467;28;20549;-52
2021/12/24 06:47:48;;;;;;;2.60;2.50;;;3.90;99.90;;;;;;5023647;28;20490;-52
2021/12/24 06:50:15;;;;;;;2.47;2.13;;;4.00;99.90;;;;;;5025099;28;20517;-52
2021/12/24 06:52:42;;;;;;;1.70;1.70;;;4.00;99.90;;;;;;5024040;28;20463;-53
2021/12/24 06:55:10;;;;;;;1.90;1.80;;;4.00;99.90;;;;;;5023680;28;20474;-53
2021/12/24 06:57:37;;;;;;;2.00;2.00;;;4.00;99.90;;;;;;5023770;28;20537;-57
2021/12/24 07:00:06;;;;;;;2.10;2.00;;;4.10;99.90;;;;;;5024959;28;20462;-49
2021/12/24 07:02:34;;;;;;;1.73;1.63;;;4.10;99.90;;;;;;5024214;28;21039;-51
2021/12/24 07:05:01;;;;;;;1.80;1.70;;;4.10;99.90;;;;;;5023131;28;20451;-57
2021/12/24 07:07:27;;;;;;;1.50;1.50;;;4.10;99.90;;;;;;5025555;28;21152;-50
2021/12/24 07:09:54;;;;;;;1.57;1.57;;;4.10;99.90;;;;;;5022000;28;20525;-52
2021/12/24 07:12:20;;;;;;;1.73;1.63;;;4.10;99.90;;;;;;5024145;28;20550;-52
2021/12/24 07:14:49;;;;;;;1.20;1.20;;;4.20;99.90;;;;;;5022459;28;20625;-51
2021/12/24 07:17:17;;;;;;;1.50;1.50;;;4.10;99.90;;;;;;5022934;28;20510;-50
2021/12/24 07:19:44;;;;;;;1.57;1.47;;;4.20;99.90;;;;;;5023581;28;20562;-47
2021/12/24 07:22:12;;;;;;;1.53;1.53;;;4.20;99.90;;;;;;5021236;28;20495;-52
2021/12/24 07:24:39;;;;;;;1.50;1.50;;;4.20;99.90;;;;;;5021359;28;21310;-52
2021/12/24 07:27:06;;;;;;;1.63;1.53;;;4.20;99.90;;;;;;5026319;28;20490;-53
2021/12/24 07:29:33;;;;;;;1.23;1.23;;;4.20;99.90;;;;;;5025528;28;20545;-53
2021/12/24 07:31:59;;;;;;;1.30;1.17;;;4.20;99.90;;;;;;5026721;28;20462;-52
2021/12/24 07:34:27;;;;;;;1.00;1.00;;;4.30;99.90;;;;;;5027924;28;20481;-53
2021/12/24 07:36:54;;;;;;;1.00;1.00;;;4.30;99.90;;;;;;5032421;28;20557;-49
2021/12/24 07:39:20;;;;;;;1.30;1.20;;;4.30;99.90;;;;;;5040535;28;20545;-50
2021/12/24 07:41:47;;;;;;;0.90;0.90;;;4.30;99.90;;;;;;5025217;28;20467;-49
2021/12/24 07:44:16;;;;;;;1.43;1.43;;;4.30;99.90;;;;;;5027026;28;20463;-49
2021/12/24 07:46:47;;;;;;;1.77;1.73;;;4.30;99.90;;;;;;5025719;28;20454;-49
2021/12/24 07:49:29;;;;;;;1.77;1.67;;;4.40;99.90;;;;;;5027051;28;20555;-49
2021/12/24 07:52:03;;;;;;;4.57;4.27;;;4.30;99.90;;;;;;5027976;28;20463;-49
2021/12/24 07:54:31;;;;;;;3.60;3.40;;;4.30;99.90;;;;;;5025136;28;21144;-49
2021/12/24 07:56:58;;;;;;;1.27;1.23;;;4.40;99.90;;;;;;5027891;28;20486;-49
2021/12/24 07:59:26;;;;;;;1.40;1.40;;;4.40;99.90;;;;;;5025895;28;20553;-49
2021/12/24 08:01:54;;;;;;;1.43;1.43;;;4.50;99.90;;;;;;5025314;28;20505;-47
2021/12/24 08:04:21;;;;;;;1.03;1.03;;;4.50;99.90;;;;;;5025588;28;20482;-49
2021/12/24 08:06:47;;;;;;;1.43;1.33;;;4.50;99.90;;;;;;5022171;28;20473;-49
2021/12/24 08:09:15;;;;;;;1.10;1.10;;;4.40;99.90;;;;;;5025534;28;20561;-48
2021/12/24 08:11:42;;;;;;;0.70;0.70;;;4.50;99.90;;;;;;5025901;28;21042;-46
2021/12/24 08:14:09;;;;;;;0.90;0.90;;;4.50;99.90;;;;;;5025746;28;20779;-47
2021/12/24 08:16:36;;;;;;;1.20;1.20;;;4.60;99.90;;;;;;5025253;28;20455;-49
2021/12/24 08:19:03;;;;;;;1.10;1.10;;;4.60;99.90;;;;;;5026502;28;21061;-46
2021/12/24 08:21:30;;;;;;;1.20;1.20;;;4.50;99.90;;;;;;5024095;28;22447;-48
2021/12/24 08:23:57;;;;;;;1.20;1.20;;;4.60;99.90;;;;;;5030608;28;20984;-48
2021/12/24 08:26:25;;;;;;;1.60;1.50;;;4.60;99.90;;;;;;5028663;28;20554;-46
2021/12/24 08:28:52;;;;;;;1.30;1.30;;;4.60;99.90;;;;;;5020003;28;20491;-46
2021/12/24 08:31:19;;;;;;;1.23;1.23;;;4.70;99.90;;;;;;5020375;28;20546;-48
2021/12/24 08:33:46;;;;;;;1.30;1.30;;;4.70;99.90;;;;;;5021902;28;20482;-47
2021/12/24 08:36:12;;;;;;;1.07;1.07;;;4.70;99.90;;;;;;5023910;28;20553;-47
2021/12/24 08:38:40;;;;;;;1.30;1.30;;;4.70;99.90;;;;;;5020071;28;20565;-48
2021/12/24 08:41:07;;;;;;;1.00;1.00;;;4.80;99.90;;;;;;5022400;28;21236;-47
2021/12/24 08:43:35;;;;;;;1.03;1.03;;;4.70;99.90;;;;;;5025232;28;20581;-47
2021/12/24 08:46:01;;;;;;;1.37;1.30;;;4.70;99.90;;;;;;5025229;28;20461;-49
2021/12/24 08:48:28;;;;;;;1.40;1.30;;;4.80;99.90;;;;;;5025244;28;20577;-48
2021/12/24 08:50:55;;;;;;;1.23;1.20;;;4.80;99.90;;;;;;5025383;28;20757;-48
2021/12/24 08:53:23;;;;;;;1.17;1.17;;;4.80;99.90;;;;;;5010689;28;21533;-48
2021/12/24 08:55:49;;;;;;;1.33;1.23;;;4.80;99.90;;;;;;5018831;28;20579;-47
2021/12/24 08:58:16;;;;;;;1.10;1.10;;;4.80;99.90;;;;;;5021840;28;20571;-46
2021/12/24 09:00:44;;;;;;;1.67;1.10;;;4.80;99.90;;;;;;5020708;28;20459;-47
2021/12/24 09:03:11;;;;;;;2.30;1.73;;;4.80;99.90;;;;;;5020631;28;20460;-47
2021/12/24 09:05:37;;;;;;;3.50;3.30;;;4.80;99.90;;;;;;5021934;28;20929;-48
2021/12/24 09:08:05;;;;;;;3.10;2.90;;;4.80;99.90;;;;;;5020680;28;20482;-48
2021/12/24 09:10:31;;;;;;;2.27;2.17;;;4.80;99.90;;;;;;5022174;28;20538;-46
2021/12/24 09:12:58;;;;;;;1.67;1.60;;;4.80;99.90;;;;;;5020311;28;20459;-48
2021/12/24 09:15:29;;;;;;;1.80;1.40;;;4.90;99.90;;;;;;5024297;28;20471;-48
2021/12/24 09:17:58;;;;;;;1.70;1.60;;;4.80;99.90;;;;;;5018857;28;20482;-47
2021/12/24 09:20:30;;;;;;;1.60;1.60;;;4.90;99.90;;;;;;5020627;28;20451;-47
2021/12/24 09:23:00;;;;;;;1.80;1.70;;;4.80;99.90;;;;;;5022885;28;20469;-48
2021/12/24 09:25:27;;;;;;;1.70;1.60;;;4.80;99.90;;;;;;5026398;28;20839;-52
2021/12/24 09:27:54;;;;;;;1.80;1.70;;;4.80;99.90;;;;;;5023060;28;20520;-50
2021/12/24 09:30:21;;;;;;;1.20;1.20;;;4.70;99.90;;;;;;5025230;28;20558;-47
2021/12/24 09:32:48;;;;;;;1.67;1.30;;;4.80;99.90;;;;;;5024027;28;21610;-47
2021/12/24 09:35:16;;;;;;;1.10;1.00;;;4.80;99.90;;;;;;5021912;28;20577;-51
2021/12/24 09:37:43;;;;;;;1.07;1.07;;;4.80;99.90;;;;;;5028284;28;20566;-56
2021/12/24 09:40:13;;;;;;;1.10;1.10;;;4.80;99.90;;;;;;5026992;28;20554;-50
2021/12/24 09:42:40;;;;;;;1.07;1.07;;;4.80;99.90;;;;;;5031742;28;20530;-56
2021/12/24 09:45:09;;;;;;;1.27;1.20;;;4.70;99.90;;;;;;5029117;28;20973;-48
2021/12/24 09:47:35;;;;;;;1.00;1.00;;;4.70;99.90;;;;;;5030749;28;20510;-49
2021/12/24 09:50:04;;;;;;;1.40;1.30;;;4.70;99.90;;;;;;5022338;28;20546;-48
2021/12/24 09:52:32;;;;;;;1.73;1.73;;;4.70;99.90;;;;;;5020916;28;20459;-45
2021/12/24 09:55:08;;;;;;;2.00;1.90;;;4.70;99.90;;;;;;5023504;28;20565;-53
2021/12/24 09:57:34;;;;;;;1.87;1.77;;;4.70;99.90;;;;;;5023759;28;20595;-52
2021/12/24 10:00:01;;;;;;;1.43;1.43;;;4.70;99.90;;;;;;5021770;28;20557;-52
2021/12/24 10:02:40;;;;;;;1.20;1.20;;;4.70;99.90;;;;;;5024899;28;20959;-50
2021/12/24 10:05:23;;;;;;;1.30;1.30;;;4.70;99.90;;;;;;5028584;28;20486;-50
2021/12/24 10:07:51;;;;;;;1.60;1.60;;;4.70;99.90;;;;;;5020664;28;20602;-50
2021/12/24 10:10:25;;;;;;;1.70;1.60;;;4.70;99.90;;;;;;5026432;28;20546;-52
2021/12/24 10:12:52;;;;;;;1.30;1.30;;;4.70;99.90;;;;;;5023233;28;20464;-50
2021/12/24 10:15:20;;;;;;;1.97;1.87;;;4.70;99.90;;;;;;5028879;28;21007;-51
2021/12/24 10:17:46;;;;;;;1.90;1.80;;;4.70;99.90;;;;;;5027749;28;20941;-50
2021/12/24 10:20:15;;;;;;;1.70;1.60;;;4.70;99.90;;;;;;5028810;28;20907;-50
2021/12/24 10:22:46;;;;;;;1.60;1.50;;;4.70;99.90;;;;;;5030330;28;20530;-50
2021/12/24 10:25:14;;;;;;;1.90;1.80;;;4.60;99.90;;;;;;5023943;28;20546;-50
2021/12/24 10:27:42;;;;;;;1.30;1.30;;;4.60;99.90;;;;;;5029037;28;21058;-50
2021/12/24 10:30:17;;;;;;;1.40;1.40;;;4.60;99.90;;;;;;5027704;28;21004;-50
2021/12/24 10:32:44;;;;;;;1.23;1.23;;;4.60;99.90;;;;;;5026735;28;20469;-50
2021/12/24 10:35:19;;;;;;;1.80;1.70;;;4.60;99.90;;;;;;5022519;28;20474;-50
2021/12/24 10:37:46;;;;;;;1.63;1.63;;;4.60;99.90;;;;;;5020855;28;20572;-50
2021/12/24 10:40:14;;;;;;;1.40;1.40;;;4.60;99.90;;;;;;5025629;28;20553;-50
2021/12/24 10:42:43;;;;;;;1.60;1.50;;;4.50;99.90;;;;;;5023848;28;20469;-50
2021/12/24 10:45:18;;;;;;;1.30;1.30;;;4.50;99.90;;;;;;5027042;28;20458;-50
2021/12/24 10:47:45;;;;;;;1.60;1.50;;;4.60;99.90;;;;;;5024132;28;20498;-50
2021/12/24 10:50:27;;;;;;;1.33;1.33;;;4.50;99.90;;;;;;5023231;28;20463;-50
2021/12/24 10:55:35;;;;;;;3.93;2.00;;;4.40;99.90;;;;;;4982570;28;20472;-53
2021/12/24 10:58:04;;;;;;;1.37;1.30;;;4.40;99.90;;;;;;4983363;28;21987;-51
2021/12/24 11:00:35;;;;;;;1.30;1.30;;;4.30;99.90;;;;;;4985197;28;20556;-51
2021/12/24 11:03:05;;;;;;;1.13;1.13;;;4.30;99.90;;;;;;4993391;28;20978;-52
2021/12/24 11:05:35;;;;;;;16.97;12.90;;;4.30;99.90;;;;;;4990847;28;20533;-52
2021/12/24 11:08:05;;;;;;;1.53;1.43;;;4.20;99.90;;;;;;4988092;28;20531;-52
2021/12/24 11:10:35;;;;;;;3.13;1.43;;;4.20;99.90;;;;;;4987413;28;20467;-52
2021/12/24 11:13:08;;;;;;;1.20;1.20;;;4.10;99.90;;;;;;4990582;28;20484;-51
2021/12/24 11:15:37;;;;;;;1.00;1.00;;;4.10;99.90;;;;;;4984646;28;20488;-52
2021/12/24 11:18:05;;;;;;;14.90;13.50;;;4.00;42.00;;;;;;4991929;28;20467;-51
2021/12/24 11:20:33;;;;;;;8.37;7.70;;;4.10;28.40;;;;;;4985433;28;20910;-56
2021/12/24 11:23:03;;;;;;;14.67;13.53;;;4.10;26.60;;;;;;4988465;28;20615;-52
2021/12/24 11:25:33;;;;;;;2.43;2.33;;;4.10;32.30;;;;;;4991981;28;20510;-53
2021/12/24 11:28:02;;;;;;;2.30;2.20;;;4.10;32.20;;;;;;4985369;28;20457;-52
2021/12/24 11:30:30;;;;;;;3.33;3.13;;;4.10;26.50;;;;;;4987514;28;20465;-53
2021/12/24 11:32:57;;;;;;;10.37;9.50;;;4.10;28.70;;;;;;4991815;28;20622;-52
2021/12/24 11:35:29;;;;;;;2.83;2.67;;;4.00;43.80;;;;;;4987139;28;20488;-52
2021/12/24 11:37:56;;;;;;;4.03;3.73;;;4.00;43.70;;;;;;4990661;28;20544;-51
2021/12/24 11:40:25;;;;;;;2.37;2.27;;;3.90;53.90;;;;;;4990959;28;20547;-52
2021/12/24 11:42:57;;;;;;;3.63;3.47;;;3.90;48.30;;;;;;4985067;28;20572;-52
2021/12/24 11:45:25;;;;;;;4.13;3.93;;;3.70;74.10;;;;;;4983219;28;20568;-53
2021/12/24 11:47:53;;;;;;;9.90;9.20;;;3.60;74.90;;;;;;4981455;28;20559;-52
2021/12/24 11:50:21;;;;;;;3.03;2.93;;;3.40;83.40;;;;;;4987368;28;20547;-51
2021/12/24 11:52:49;;;;;;;2.80;2.70;;;3.40;67.50;;;;;;4989546;28;20582;-53
2021/12/24 11:55:16;;;;;;;1.20;1.20;;;3.30;62.20;;;;;;4985013;28;20531;-52
2021/12/24 11:57:51;;;;;;;3.10;2.90;;;3.20;74.70;;;;;;4985588;28;20551;-52
2021/12/24 12:00:24;;;;;;;1.80;1.80;;;3.10;84.10;;;;;;4987329;28;20538;-52
2021/12/24 12:02:52;;;;;;;1.97;1.70;;;3.10;71.40;;;;;;4991039;28;20560;-52
2021/12/24 12:05:24;;;;;;;1.60;1.50;;;3.00;90.50;;;;;;4992034;28;20548;-52
2021/12/24 12:07:53;;;;;;;1.70;1.60;;;3.00;81.70;;;;;;4989329;28;20453;-51
2021/12/24 12:10:49;;;;;;;1.77;1.77;;;2.90;88.30;;;;;;4987830;28;20540;-52
2021/12/24 12:13:35;;;;;;;9.80;8.17;;;2.80;87.50;;;;;;4989601;28;20567;-52
2021/12/24 12:16:04;;;;;;;4.47;4.07;;;2.80;85.10;;;;;;4984741;28;20550;-53
2021/12/24 12:18:43;;;;;;;1.60;1.50;;;2.80;83.70;;;;;;4984127;28;20492;-52
2021/12/24 12:21:11;;;;;;;3.70;3.50;;;2.70;91.40;;;;;;4981464;28;20547;-53
2021/12/24 12:24:57;;;;;;;2.20;2.10;;;2.60;99.90;;;;;;4984300;28;20532;-52
2021/12/24 12:26:43;;;;;;;2.90;2.80;;;2.50;99.90;;;;;;4984489;28;20984;-52
2021/12/24 12:29:28;;;;;;;11.23;10.10;;;2.50;92.50;;;;;;4985049;28;20468;-52
2021/12/24 12:32:02;;;;;;;1.93;1.83;;;2.50;89.50;;;;;;4988834;28;20475;-52
2021/12/24 12:34:54;;;;;;;1.63;1.63;;;2.50;90.20;;;;;;4984738;28;20466;-51
2021/12/24 12:37:23;;;;;;;2.20;2.10;;;2.40;99.90;;;;;;4987097;28;20492;-51
2021/12/24 12:39:53;;;;;;;3.87;3.57;;;2.40;98.60;;;;;;4986080;28;20559;-53
2021/12/24 12:42:20;;;;;;;8.93;7.13;;;2.30;92.20;;;;;;4986811;28;20567;-52
2021/12/24 12:44:49;;;;;;;3.83;3.50;;;2.30;99.00;;;;;;4985374;28;20483;-52
2021/12/24 12:47:20;;;;;;;2.87;2.67;;;2.30;93.20;;;;;;4985268;28;20460;-52
2021/12/24 12:49:47;;;;;;;9.73;7.07;;;2.30;88.10;;;;;;4984300;28;20518;-53
2021/12/24 12:52:24;;;;;;;3.10;2.90;;;2.30;89.50;;;;;;4983633;28;20500;-52
2021/12/24 12:54:55;;;;;;;225.17;114.97;;;2.30;92.50;;;;;;4986638;28;20471;-52
2021/12/24 12:57:28;;;;;;;9.90;5.83;;;2.30;94.90;;;;;;4990336;28;20492;-52
2021/12/24 13:00:27;;;;;;;22.43;8.40;;;2.20;99.90;;;;;;4990605;28;20995;-52
2021/12/24 13:03:14;;;;;;;9.73;5.70;;;2.20;99.90;;;;;;4985218;28;20487;-52
2021/12/24 13:05:59;;;;;;;2.80;2.60;;;2.10;99.90;;;;;;4983520;28;20552;-51
2021/12/24 13:08:28;;;;;;;5.27;3.07;;;2.10;99.90;;;;;;4980477;28;20475;-51
2021/12/24 13:10:59;;;;;;;2.77;2.67;;;2.00;99.90;;;;;;4983378;28;20551;-52
2021/12/24 13:13:27;;;;;;;2.40;2.30;;;2.00;99.90;;;;;;4981745;28;20512;-52
2021/12/24 13:15:54;;;;;;;2.57;2.47;;;2.10;94.70;;;;;;4985268;28;20486;-52
2021/12/24 13:18:27;;;;;;;2.03;1.93;;;2.10;99.80;;;;;;4982842;28;20531;-52
2021/12/24 13:23:42;;;;;;;2.77;2.67;;;2.00;99.90;;;;;;4978934;28;21206;-53
2021/12/24 13:26:11;;;;;;;3.03;2.83;;;2.00;99.90;;;;;;4981510;28;20814;-52
2021/12/24 13:28:53;;;;;;;2.60;2.50;;;2.00;99.90;;;;;;4985114;28;20482;-52
2021/12/24 13:31:20;;;;;;;2.97;2.73;;;2.00;99.90;;;;;;4982155;28;21288;-52
2021/12/24 13:33:48;;;;;;;2.53;2.43;;;2.00;99.90;;;;;;4982796;28;20543;-52
2021/12/24 13:36:15;;;;;;;2.17;2.07;;;1.90;99.90;;;;;;4985251;28;20484;-52
2021/12/24 13:38:41;;;;;;;2.90;2.80;;;1.80;99.90;;;;;;4987973;28;20539;-52
2021/12/24 13:41:08;;;;;;;2.63;2.43;;;1.80;99.90;;;;;;4984424;28;20544;-52
2021/12/24 13:43:37;;;;;;;2.90;2.80;;;1.80;99.90;;;;;;4982152;28;20945;-54
2021/12/24 13:46:08;;;;;;;2.63;2.53;;;1.80;99.90;;;;;;4983699;28;20488;-53
2021/12/24 13:48:47;;;;;;;3.00;2.80;;;1.80;99.90;;;;;;4982118;28;20550;-52
2021/12/24 13:56:51;;;;;;;3.30;3.20;;;1.80;99.90;;;;;;4978179;28;20480;-54
2021/12/24 13:59:22;;;;;;;2.97;2.87;;;1.80;99.90;;;;;;4982142;28;20464;-54
2021/12/24 14:01:49;;;;;;;3.33;2.87;;;1.70;99.90;;;;;;4978747;28;20572;-52
2021/12/24 14:04:19;;;;;;;6.90;6.40;;;1.70;99.90;;;;;;4980861;28;20539;-53
2021/12/24 14:06:50;;;;;;;4.90;4.50;;;1.70;99.90;;;;;;4977158;28;20830;-52
2021/12/24 14:09:19;;;;;;;4.43;4.13;;;1.70;99.90;;;;;;4983911;28;20472;-53
2021/12/24 14:11:47;;;;;;;13.03;8.20;;;1.70;99.90;;;;;;4979999;28;20515;-54
2021/12/24 14:14:20;;;;;;;6.10;5.30;;;1.70;99.90;;;;;;4983601;28;20464;-53
2021/12/24 14:17:00;;;;;;;3.10;3.00;;;1.70;99.90;;;;;;4981645;28;21317;-53
2021/12/24 14:19:33;;;;;;;2.97;2.77;;;1.60;99.90;;;;;;4982143;28;20594;-52
2021/12/24 14:22:09;;;;;;;2.90;2.80;;;1.60;99.90;;;;;;4978136;28;20579;-52
2021/12/24 14:24:37;;;;;;;3.30;3.20;;;1.60;99.90;;;;;;4981343;28;20828;-52
2021/12/24 14:27:06;;;;;;;4.20;3.83;;;1.60;99.90;;;;;;4982363;28;20460;-52
2021/12/24 14:29:39;;;;;;;3.27;3.10;;;1.50;99.90;;;;;;4982531;28;20527;-53